Time;durP1;ratioP1;P1;durP2;ratioP2;P2;SDS_P1;SDS_P2;PMS_P1;PMS_P2;Temp;Humidity;BMP_temperature;BMP_pressure;BME280_temperature;BME280_humidity;BME280_pressure;Samples;Min_cycle;Max_cycle;Signal;HPM_P1;HPM_P2
2022/07/22 00:00:22;;;;;;;0.30;0.30;;;17.80;33.00;;;;;;5010989;28;20180;-76
2022/07/22 00:02:47;;;;;;;0.30;0.30;;;17.80;38.60;;;;;;5011435;28;20574;-76
2022/07/22 00:05:13;;;;;;;0.40;0.40;;;17.70;38.70;;;;;;5011406;28;20390;-76
2022/07/22 00:07:39;;;;;;;0.23;0.23;;;17.70;33.20;;;;;;5012663;28;20669;-76
2022/07/22 00:10:08;;;;;;;0.30;0.30;;;17.70;26.50;;;;;;5014910;28;20169;-76
2022/07/22 00:12:34;;;;;;;0.30;0.30;;;17.60;38.60;;;;;;5015188;28;20219;-77
2022/07/22 00:14:59;;;;;;;0.30;0.30;;;17.60;75.40;;;;;;5015122;28;20176;-76
2022/07/22 00:17:25;;;;;;;0.23;0.23;;;17.60;74.40;;;;;;5015169;28;20644;-76
2022/07/22 00:19:50;;;;;;;0.30;0.30;;;17.60;71.90;;;;;;5014451;28;20177;-76
2022/07/22 00:22:16;;;;;;;0.30;0.30;;;17.50;69.00;;;;;;5015096;28;20597;-76
2022/07/22 00:24:41;;;;;;;0.27;0.27;;;17.50;81.60;;;;;;5015119;28;20537;-76
2022/07/22 00:27:07;;;;;;;0.30;0.30;;;17.40;92.70;;;;;;5015094;28;20219;-76
2022/07/22 00:29:32;;;;;;;0.27;0.27;;;17.40;93.20;;;;;;5014677;28;20168;-76
2022/07/22 00:31:58;;;;;;;0.30;0.30;;;17.40;96.90;;;;;;5014822;28;20251;-77
2022/07/22 00:34:23;;;;;;;0.30;0.30;;;17.30;96.90;;;;;;5014726;28;20177;-76
2022/07/22 00:36:49;;;;;;;0.30;0.30;;;17.20;94.30;;;;;;5014775;28;20219;-76
2022/07/22 00:39:15;;;;;;;0.30;0.30;;;17.20;99.90;;;;;;5014265;28;20386;-76
2022/07/22 00:41:40;;;;;;;0.30;0.30;;;17.20;99.90;;;;;;5040388;23;20552;-84
2022/07/22 00:44:08;;;;;;;0.30;0.30;;;17.20;99.90;;;;;;5040393;28;20220;-83
2022/07/22 00:46:35;;;;;;;0.30;0.30;;;17.20;99.90;;;;;;5040543;28;20267;-83
2022/07/22 00:49:05;;;;;;;0.20;0.20;;;17.20;99.90;;;;;;5038678;28;20803;-83
2022/07/22 00:51:31;;;;;;;0.30;0.30;;;17.10;99.90;;;;;;5039535;28;20710;-83
2022/07/22 00:53:58;;;;;;;0.30;0.30;;;17.10;99.90;;;;;;5040078;28;20245;-84
2022/07/22 00:56:24;;;;;;;0.30;0.30;;;17.10;99.90;;;;;;5039417;28;20212;-84
2022/07/22 00:58:52;;;;;;;0.33;0.33;;;17.10;99.90;;;;;;5039410;28;20183;-81
2022/07/22 01:01:18;;;;;;;0.30;0.30;;;17.00;99.90;;;;;;5038268;28;20197;-81
2022/07/22 01:03:44;;;;;;;0.30;0.30;;;17.00;99.90;;;;;;5037777;28;20210;-80
2022/07/22 01:06:10;;;;;;;0.40;0.40;;;17.00;99.90;;;;;;5038212;28;20191;-81
2022/07/22 01:08:38;;;;;;;0.30;0.30;;;17.00;99.90;;;;;;5037976;28;20226;-80
2022/07/22 01:11:19;;;;;;;0.30;0.30;;;17.00;99.90;;;;;;5037428;28;20206;-79
2022/07/22 01:13:46;;;;;;;0.30;0.30;;;17.00;99.90;;;;;;5038395;28;20199;-81
2022/07/22 01:16:13;;;;;;;0.30;0.30;;;17.00;99.90;;;;;;5038908;28;20203;-80
2022/07/22 01:18:40;;;;;;;0.30;0.30;;;17.00;99.90;;;;;;5037913;28;20176;-80
2022/07/22 01:21:07;;;;;;;0.30;0.30;;;17.00;99.90;;;;;;5039703;28;20191;-81
2022/07/22 01:23:33;;;;;;;0.30;0.30;;;17.00;99.90;;;;;;5039568;28;20219;-81
2022/07/22 01:25:59;;;;;;;0.30;0.30;;;16.90;99.90;;;;;;5039059;28;20179;-82
2022/07/22 01:28:24;;;;;;;0.23;0.23;;;16.90;99.90;;;;;;5037557;28;20203;-80
2022/07/22 01:30:50;;;;;;;0.30;0.30;;;16.80;99.90;;;;;;5038045;28;20719;-81
2022/07/22 01:33:17;;;;;;;0.20;0.20;;;16.80;99.90;;;;;;5038674;28;20251;-81
2022/07/22 01:35:44;;;;;;;0.30;0.30;;;16.70;99.90;;;;;;5038815;28;20212;-80
2022/07/22 01:38:10;;;;;;;0.30;0.30;;;16.70;99.90;;;;;;5038902;28;20180;-81
2022/07/22 01:40:35;;;;;;;0.30;0.30;;;16.70;99.90;;;;;;5036967;28;20589;-80
2022/07/22 01:43:01;;;;;;;0.30;0.30;;;16.40;99.90;;;;;;5037507;28;20215;-81
2022/07/22 01:45:26;;;;;;;0.30;0.30;;;16.60;99.90;;;;;;5037857;28;20543;-81
2022/07/22 01:47:52;;;;;;;0.37;0.37;;;16.60;99.90;;;;;;5037502;28;20184;-81
2022/07/22 01:50:18;;;;;;;0.20;0.20;;;16.60;99.90;;;;;;5036971;28;20175;-80
2022/07/22 01:52:43;;;;;;;0.30;0.30;;;16.60;99.90;;;;;;5037407;28;20199;-81
2022/07/22 01:55:10;;;;;;;0.30;0.30;;;16.70;99.90;;;;;;5038695;28;20164;-80
2022/07/22 01:57:36;;;;;;;0.30;0.30;;;16.70;99.90;;;;;;5038179;28;20220;-81
2022/07/22 02:00:08;;;;;;;0.30;0.30;;;16.60;99.90;;;;;;5037614;28;20198;-81
2022/07/22 02:02:34;;;;;;;0.30;0.30;;;16.50;99.90;;;;;;5037115;28;20363;-81
2022/07/22 02:04:59;;;;;;;0.30;0.30;;;16.60;99.90;;;;;;5038917;28;20180;-80
2022/07/22 02:07:25;;;;;;;0.27;0.27;;;16.50;99.90;;;;;;5037904;28;20179;-80
2022/07/22 02:09:52;;;;;;;0.30;0.30;;;16.40;99.90;;;;;;5037084;28;20182;-80
2022/07/22 02:12:18;;;;;;;0.40;0.40;;;16.30;99.90;;;;;;5036667;28;20196;-81
2022/07/22 02:14:43;;;;;;;0.30;0.30;;;16.30;99.90;;;;;;5037272;28;20180;-81
2022/07/22 02:17:09;;;;;;;0.37;0.37;;;16.30;99.90;;;;;;5037369;28;20653;-80
2022/07/22 02:19:34;;;;;;;0.30;0.30;;;16.40;99.90;;;;;;5036211;28;20194;-80
2022/07/22 02:22:00;;;;;;;0.30;0.30;;;16.50;99.90;;;;;;5035528;28;20239;-80
2022/07/22 02:24:26;;;;;;;0.30;0.30;;;16.40;99.90;;;;;;5036348;28;20176;-80
2022/07/22 02:26:51;;;;;;;0.20;0.20;;;16.40;99.90;;;;;;5035962;28;20203;-80
2022/07/22 02:29:17;;;;;;;0.37;0.37;;;16.30;99.90;;;;;;5035947;28;20184;-80
2022/07/22 02:31:42;;;;;;;0.30;0.30;;;16.30;99.90;;;;;;5035842;28;20207;-79
2022/07/22 02:34:08;;;;;;;0.30;0.30;;;16.30;99.90;;;;;;5037041;28;20272;-80
2022/07/22 02:36:34;;;;;;;0.37;0.37;;;16.30;99.90;;;;;;5036164;28;20216;-79
2022/07/22 02:38:59;;;;;;;0.30;0.30;;;16.20;99.90;;;;;;5036497;28;20182;-80
2022/07/22 02:41:25;;;;;;;0.30;0.30;;;16.10;99.90;;;;;;5037148;28;20195;-79
2022/07/22 02:43:53;;;;;;;0.30;0.30;;;16.10;99.90;;;;;;5036302;28;20570;-80
2022/07/22 02:46:20;;;;;;;0.30;0.30;;;16.00;99.90;;;;;;5035064;28;20186;-80
2022/07/22 02:48:46;;;;;;;0.30;0.30;;;16.00;99.90;;;;;;5037475;28;20254;-79
2022/07/22 02:51:11;;;;;;;0.40;0.40;;;16.10;99.90;;;;;;5035336;28;20175;-79
2022/07/22 02:53:37;;;;;;;0.33;0.33;;;16.10;99.90;;;;;;5051359;28;20200;-79
2022/07/22 02:56:02;;;;;;;0.40;0.40;;;16.00;99.90;;;;;;5057665;28;20215;-79
2022/07/22 02:58:28;;;;;;;0.30;0.30;;;15.90;99.90;;;;;;5057405;28;20187;-78
2022/07/22 03:00:54;;;;;;;0.30;0.30;;;16.00;99.90;;;;;;5056921;28;20198;-79
2022/07/22 03:03:19;;;;;;;0.30;0.30;;;15.90;99.90;;;;;;5056615;28;20184;-78
2022/07/22 03:05:45;;;;;;;0.30;0.30;;;15.90;99.90;;;;;;5057122;28;20316;-78
2022/07/22 03:08:11;;;;;;;0.40;0.40;;;15.90;99.90;;;;;;5057349;28;20196;-79
2022/07/22 03:10:37;;;;;;;0.40;0.40;;;15.80;99.90;;;;;;5048287;28;20188;-80
2022/07/22 03:13:02;;;;;;;0.30;0.30;;;15.70;99.90;;;;;;5044240;28;20226;-79
2022/07/22 03:15:28;;;;;;;0.30;0.30;;;15.70;99.90;;;;;;5044691;28;20183;-79
2022/07/22 03:17:53;;;;;;;0.30;0.30;;;15.70;99.90;;;;;;5045557;28;20237;-79
2022/07/22 03:20:19;;;;;;;0.30;0.30;;;15.70;99.90;;;;;;5044852;28;20203;-78
2022/07/22 03:22:45;;;;;;;0.30;0.30;;;15.70;99.90;;;;;;5042182;28;20224;-80
2022/07/22 03:25:11;;;;;;;0.30;0.30;;;15.70;99.90;;;;;;5037584;28;20186;-81
2022/07/22 03:27:37;;;;;;;0.37;0.37;;;15.70;99.90;;;;;;5037502;28;20238;-80
2022/07/22 03:30:04;;;;;;;0.40;0.40;;;15.70;99.90;;;;;;5036597;28;20168;-80
2022/07/22 03:32:30;;;;;;;0.30;0.30;;;15.70;99.90;;;;;;5036869;28;20191;-80
2022/07/22 03:34:55;;;;;;;0.40;0.40;;;15.70;99.90;;;;;;5036860;28;20207;-80
2022/07/22 03:37:21;;;;;;;0.33;0.33;;;15.70;99.90;;;;;;5036168;28;20227;-80
2022/07/22 03:39:46;;;;;;;0.40;0.40;;;15.70;99.90;;;;;;5035539;28;20599;-79
2022/07/22 03:42:12;;;;;;;0.40;0.40;;;15.70;99.90;;;;;;5038033;28;20211;-79
2022/07/22 03:44:37;;;;;;;0.30;0.30;;;15.70;99.90;;;;;;5039525;28;20183;-80
2022/07/22 03:47:03;;;;;;;0.40;0.40;;;15.70;99.90;;;;;;5039656;28;20187;-80
2022/07/22 03:49:30;;;;;;;0.40;0.40;;;15.60;99.90;;;;;;5037486;28;20175;-79
2022/07/22 03:51:56;;;;;;;0.37;0.37;;;15.70;99.90;;;;;;5038191;28;20645;-79
2022/07/22 03:54:21;;;;;;;0.40;0.40;;;15.80;99.90;;;;;;5038713;28;20191;-79
2022/07/22 03:56:47;;;;;;;0.40;0.40;;;15.80;99.90;;;;;;5038661;28;20645;-79
2022/07/22 03:59:12;;;;;;;0.40;0.40;;;15.80;99.90;;;;;;5038670;28;20600;-79
2022/07/22 04:01:38;;;;;;;0.20;0.20;;;15.80;99.90;;;;;;5037830;28;20176;-80
2022/07/22 04:04:04;;;;;;;0.30;0.30;;;15.80;99.90;;;;;;5038036;28;20602;-79
2022/07/22 04:06:29;;;;;;;0.30;0.30;;;15.80;99.90;;;;;;5037421;28;20178;-78
2022/07/22 04:08:55;;;;;;;0.40;0.40;;;15.70;99.90;;;;;;5036641;28;20192;-79
2022/07/22 04:11:21;;;;;;;0.30;0.30;;;15.70;99.90;;;;;;5038626;28;20683;-81
2022/07/22 04:13:46;;;;;;;0.37;0.37;;;15.80;99.90;;;;;;5039431;28;20195;-80
2022/07/22 04:16:12;;;;;;;0.30;0.30;;;15.80;99.90;;;;;;5040496;28;20284;-80
2022/07/22 04:18:37;;;;;;;0.30;0.30;;;15.90;99.90;;;;;;5040066;28;20172;-81
2022/07/22 04:21:03;;;;;;;0.30;0.30;;;15.90;99.90;;;;;;5039548;28;20192;-80
2022/07/22 04:23:29;;;;;;;0.30;0.30;;;16.20;99.90;;;;;;5038845;28;20203;-81
2022/07/22 04:25:55;;;;;;;0.40;0.40;;;16.30;99.90;;;;;;5039589;28;20176;-81
2022/07/22 04:28:20;;;;;;;0.30;0.30;;;16.50;99.90;;;;;;5039398;28;20700;-80
2022/07/22 04:30:46;;;;;;;0.40;0.40;;;16.60;99.90;;;;;;5039533;28;20176;-81
2022/07/22 04:33:12;;;;;;;0.40;0.40;;;16.80;99.90;;;;;;5040280;28;20558;-79
2022/07/22 04:35:37;;;;;;;0.30;0.30;;;17.00;99.90;;;;;;5038763;28;20179;-80
2022/07/22 04:38:03;;;;;;;0.40;0.40;;;17.20;99.90;;;;;;5038985;28;20266;-79
2022/07/22 04:40:29;;;;;;;0.30;0.30;;;17.40;99.90;;;;;;5038287;28;20671;-79
2022/07/22 04:42:54;;;;;;;0.40;0.40;;;17.60;99.90;;;;;;5037856;28;20212;-79
2022/07/22 04:45:20;;;;;;;0.37;0.37;;;17.80;93.50;;;;;;5036179;28;20172;-79
2022/07/22 04:47:46;;;;;;;0.40;0.40;;;18.10;52.70;;;;;;5038176;28;20183;-78
2022/07/22 04:50:11;;;;;;;0.30;0.30;;;18.30;26.40;;;;;;5039743;28;20175;-79
2022/07/22 04:52:37;;;;;;;0.30;0.30;;;18.50;1.00;;;;;;5036479;28;20246;-79
2022/07/22 04:55:03;;;;;;;0.40;0.40;;;18.60;1.00;;;;;;5036839;28;20179;-79
2022/07/22 04:57:28;;;;;;;0.30;0.30;;;18.60;1.00;;;;;;5037638;28;20220;-79
2022/07/22 04:59:54;;;;;;;0.40;0.40;;;18.70;1.00;;;;;;5037752;28;20168;-79
2022/07/22 05:02:20;;;;;;;0.30;0.30;;;18.80;1.00;;;;;;5036988;28;20204;-80
2022/07/22 05:04:46;;;;;;;0.30;0.30;;;19.00;1.00;;;;;;5036828;28;20196;-79
2022/07/22 05:07:11;;;;;;;0.30;0.30;;;19.20;1.00;;;;;;5036440;28;20187;-79
2022/07/22 05:09:37;;;;;;;0.30;0.30;;;19.40;1.00;;;;;;5036579;28;20183;-79
2022/07/22 05:12:03;;;;;;;0.30;0.30;;;19.70;1.00;;;;;;5037103;28;20191;-80
2022/07/22 05:14:29;;;;;;;0.30;0.30;;;19.70;1.00;;;;;;5038010;28;20196;-79
2022/07/22 05:16:55;;;;;;;0.30;0.30;;;19.80;1.00;;;;;;5036908;28;20265;-80
2022/07/22 05:19:20;;;;;;;0.30;0.30;;;19.60;1.00;;;;;;5036546;28;20183;-80
2022/07/22 05:21:46;;;;;;;0.40;0.40;;;19.40;1.00;;;;;;5037067;28;20203;-81
2022/07/22 05:24:12;;;;;;;0.30;0.30;;;19.50;1.00;;;;;;5036806;28;20168;-80
2022/07/22 05:26:37;;;;;;;0.33;0.33;;;19.10;1.00;;;;;;5037491;28;20179;-80
2022/07/22 05:29:03;;;;;;;0.40;0.40;;;18.90;1.00;;;;;;5036286;28;20182;-81
2022/07/22 05:31:28;;;;;;;0.20;0.20;;;18.70;1.00;;;;;;5036589;28;20175;-80
2022/07/22 05:33:54;;;;;;;0.30;0.30;;;18.70;1.00;;;;;;5036528;28;20272;-81
2022/07/22 05:36:20;;;;;;;0.30;0.30;;;18.80;1.00;;;;;;5036715;28;20303;-81
2022/07/22 05:38:45;;;;;;;0.30;0.30;;;18.90;1.00;;;;;;5037588;28;20203;-81
2022/07/22 05:41:11;;;;;;;0.20;0.20;;;19.10;1.00;;;;;;5036851;28;20237;-80
2022/07/22 05:43:36;;;;;;;0.40;0.40;;;19.40;1.00;;;;;;5036449;28;20219;-80
2022/07/22 05:46:02;;;;;;;0.33;0.33;;;19.60;1.00;;;;;;5036788;28;20183;-81
2022/07/22 05:48:28;;;;;;;0.30;0.30;;;19.80;1.00;;;;;;5036621;28;20168;-81
2022/07/22 05:50:55;;;;;;;0.40;0.40;;;19.90;1.00;;;;;;5035263;28;20184;-79
2022/07/22 05:53:21;;;;;;;0.40;0.40;;;19.90;1.00;;;;;;5036393;28;20199;-80
2022/07/22 05:55:46;;;;;;;0.30;0.30;;;20.00;1.00;;;;;;5036381;28;20180;-82
2022/07/22 05:58:12;;;;;;;0.30;0.30;;;19.90;1.00;;;;;;5035728;28;20287;-83
2022/07/22 06:00:39;;;;;;;0.30;0.30;;;19.80;1.00;;;;;;5035519;28;20168;-82
2022/07/22 06:03:05;;;;;;;0.30;0.30;;;19.70;1.00;;;;;;5035871;28;20200;-81
2022/07/22 06:05:31;;;;;;;0.30;0.30;;;19.70;1.00;;;;;;5034648;28;20211;-80
2022/07/22 06:07:56;;;;;;;0.37;0.37;;;19.70;1.00;;;;;;5036144;28;20183;-80
2022/07/22 06:10:22;;;;;;;0.30;0.30;;;19.80;1.00;;;;;;5035406;28;20172;-81
2022/07/22 06:12:47;;;;;;;0.30;0.30;;;19.90;1.00;;;;;;5035697;28;20196;-80
2022/07/22 06:15:13;;;;;;;0.30;0.30;;;20.00;1.00;;;;;;5035374;28;20270;-79
2022/07/22 06:17:38;;;;;;;0.40;0.40;;;20.10;1.00;;;;;;5035605;28;20208;-81
2022/07/22 06:20:05;;;;;;;0.30;0.30;;;20.40;1.00;;;;;;5035364;28;20183;-80
2022/07/22 06:22:31;;;;;;;0.30;0.30;;;20.50;1.00;;;;;;5035346;28;20693;-81
2022/07/22 06:24:56;;;;;;;0.20;0.20;;;20.60;1.00;;;;;;5036135;28;20182;-79
2022/07/22 06:27:22;;;;;;;0.30;0.30;;;20.80;1.00;;;;;;5035998;28;20186;-81
2022/07/22 06:29:47;;;;;;;0.20;0.20;;;21.00;1.00;;;;;;5039852;28;20187;-79
2022/07/22 06:32:13;;;;;;;0.30;0.30;;;21.00;99.90;;;;;;5039750;28;20200;-83
2022/07/22 06:34:38;;;;;;;0.30;0.30;;;20.90;1.00;;;;;;5039120;28;20175;-80
2022/07/22 06:37:04;;;;;;;0.30;0.30;;;20.80;1.00;;;;;;5044435;28;20887;-81
2022/07/22 06:39:30;;;;;;;0.30;0.30;;;20.80;1.00;;;;;;5043965;28;20176;-81
2022/07/22 06:41:55;;;;;;;0.40;0.40;;;20.80;1.00;;;;;;5045198;28;21924;-81
2022/07/22 06:44:21;;;;;;;0.30;0.30;;;21.00;1.00;;;;;;5044867;28;20172;-81
2022/07/22 06:46:46;;;;;;;0.30;0.30;;;21.10;99.90;;;;;;5044443;28;20663;-81
2022/07/22 06:49:12;;;;;;;0.30;0.30;;;21.10;1.00;;;;;;5044688;28;20459;-79
2022/07/22 06:51:37;;;;;;;0.30;0.30;;;21.30;1.00;;;;;;5046482;28;20705;-80
2022/07/22 06:54:03;;;;;;;0.30;0.30;;;21.40;1.00;;;;;;5045463;28;20688;-81
2022/07/22 06:56:29;;;;;;;0.30;0.30;;;21.50;99.90;;;;;;5045623;28;20215;-81
2022/07/22 06:58:54;;;;;;;0.30;0.30;;;21.50;1.00;;;;;;5040793;28;20668;-80
2022/07/22 07:01:20;;;;;;;0.30;0.30;;;21.30;1.00;;;;;;5038256;28;20179;-79
2022/07/22 07:03:45;;;;;;;0.20;0.20;;;21.40;5.20;;;;;;5037158;28;20291;-80
2022/07/22 07:06:11;;;;;;;0.30;0.30;;;21.40;1.00;;;;;;5036397;28;20175;-80
2022/07/22 07:08:40;;;;;;;0.30;0.30;;;21.30;1.00;;;;;;5036711;28;20210;-80
2022/07/22 07:11:06;;;;;;;0.30;0.30;;;21.50;1.00;;;;;;5038476;28;20198;-80
2022/07/22 07:13:32;;;;;;;0.30;0.30;;;21.60;99.90;;;;;;5042980;28;20200;-80
2022/07/22 07:15:58;;;;;;;0.20;0.20;;;21.60;1.00;;;;;;5039908;28;20207;-79
2022/07/22 07:18:23;;;;;;;0.33;0.33;;;21.70;99.90;;;;;;5040250;28;20179;-78
2022/07/22 07:20:49;;;;;;;0.30;0.30;;;21.70;99.90;;;;;;5045732;28;20179;-79
2022/07/22 07:23:15;;;;;;;0.30;0.30;;;21.80;99.90;;;;;;5046625;28;20192;-79
2022/07/22 07:25:41;;;;;;;0.20;0.20;;;21.90;1.00;;;;;;5045197;28;20187;-79
2022/07/22 07:28:06;;;;;;;0.30;0.30;;;22.10;99.90;;;;;;5049979;28;20176;-80
2022/07/22 07:30:32;;;;;;;0.37;0.37;;;22.30;1.00;;;;;;5041333;28;20629;-79
2022/07/22 07:33:00;;;;;;;0.30;0.30;;;22.20;1.00;;;;;;5041726;28;20618;-82
2022/07/22 07:35:26;;;;;;;0.30;0.30;;;22.50;1.00;;;;;;5038577;28;20648;-80
2022/07/22 07:37:52;;;;;;;0.20;0.20;;;22.70;1.00;;;;;;5038434;28;20565;-80
2022/07/22 07:40:17;;;;;;;0.30;0.30;;;22.80;1.00;;;;;;5040645;28;20207;-80
2022/07/22 07:42:43;;;;;;;0.30;0.30;;;23.00;1.00;;;;;;5037676;28;20207;-79
2022/07/22 07:45:09;;;;;;;0.30;0.30;;;22.90;1.00;;;;;;5039153;28;20176;-79
2022/07/22 07:47:34;;;;;;;0.30;0.30;;;23.00;1.00;;;;;;5031436;28;20237;-77
2022/07/22 07:50:02;;;;;;;0.27;0.27;;;23.20;1.00;;;;;;5022449;28;20184;-78
2022/07/22 07:52:27;;;;;;;0.30;0.30;;;23.40;1.00;;;;;;5023657;28;20252;-78
2022/07/22 07:54:55;;;;;;;0.20;0.20;;;23.70;99.90;;;;;;5035247;28;20171;-78
2022/07/22 07:57:21;;;;;;;0.20;0.20;;;24.20;99.90;;;;;;5056295;28;20213;-77
2022/07/22 07:59:47;;;;;;;0.20;0.20;;;24.80;1.00;;;;;;5055426;28;20164;-80
2022/07/22 08:02:13;;;;;;;0.30;0.30;;;25.20;1.00;;;;;;5052304;28;20229;-77
2022/07/22 08:04:38;;;;;;;0.30;0.30;;;25.70;1.00;;;;;;5051063;28;20200;-78
2022/07/22 08:07:07;;;;;;;0.30;0.30;;;25.90;1.00;;;;;;5037191;28;20190;-76
2022/07/22 08:09:35;;;;;;;0.40;0.40;;;26.30;1.00;;;;;;5036829;28;20183;-78
2022/07/22 08:12:00;;;;;;;0.40;0.40;;;26.50;1.00;;;;;;5036786;28;20213;-79
2022/07/22 08:14:26;;;;;;;0.40;0.40;;;27.20;1.00;;;;;;5038170;28;20180;-80
2022/07/22 08:16:52;;;;;;;0.40;0.40;;;27.80;1.00;;;;;;5043650;28;20211;-79
2022/07/22 08:19:17;;;;;;;0.40;0.40;;;28.20;1.00;;;;;;5042138;28;20184;-80
2022/07/22 08:21:43;;;;;;;0.40;0.40;;;28.40;1.00;;;;;;5043864;28;20179;-79
2022/07/22 08:24:09;;;;;;;0.40;0.40;;;28.60;1.00;;;;;;5044001;28;20180;-79
2022/07/22 08:26:36;;;;;;;0.40;0.40;;;29.00;1.00;;;;;;5043481;28;20188;-79
2022/07/22 08:29:03;;;;;;;0.30;0.30;;;29.30;1.00;;;;;;5042672;28;20168;-83
2022/07/22 08:31:29;;;;;;;0.43;0.43;;;29.70;1.00;;;;;;5045592;28;20235;-79
2022/07/22 08:33:54;;;;;;;0.50;0.50;;;29.70;1.00;;;;;;5048213;28;20266;-79
2022/07/22 08:36:20;;;;;;;0.50;0.50;;;29.90;1.00;;;;;;5046724;28;20206;-79
2022/07/22 08:38:45;;;;;;;0.50;0.50;;;30.00;1.00;;;;;;5046948;28;20172;-79
2022/07/22 08:41:13;;;;;;;0.50;0.50;;;30.20;1.00;;;;;;5046472;28;20180;-79
2022/07/22 08:43:42;;;;;;;0.40;0.40;;;30.10;1.00;;;;;;5045861;28;20298;-79
2022/07/22 08:46:07;;;;;;;0.40;0.40;;;29.90;1.00;;;;;;5046879;28;20572;-79
2022/07/22 08:48:35;;;;;;;0.40;0.40;;;29.70;1.00;;;;;;5047345;28;20183;-79
2022/07/22 08:51:01;;;;;;;0.40;0.40;;;29.40;1.00;;;;;;5046771;28;20215;-79
2022/07/22 08:53:27;;;;;;;0.50;0.50;;;29.60;1.00;;;;;;5045792;28;20196;-80
2022/07/22 08:55:52;;;;;;;0.50;0.50;;;30.00;1.00;;;;;;5047946;28;20180;-79
2022/07/22 08:58:18;;;;;;;0.60;0.60;;;29.90;1.00;;;;;;5042824;28;20207;-81
2022/07/22 09:00:43;;;;;;;0.50;0.50;;;30.00;1.00;;;;;;5042309;28;20164;-80
2022/07/22 09:03:23;;;;;;;0.50;0.50;;;30.30;1.00;;;;;;5046514;28;20583;-80
2022/07/22 09:05:52;;;;;;;0.47;0.47;;;30.00;1.00;;;;;;5045186;28;20626;-80
2022/07/22 09:08:19;;;;;;;0.50;0.50;;;30.10;1.00;;;;;;5044440;28;20267;-81
2022/07/22 09:10:44;;;;;;;0.30;0.30;;;29.80;1.00;;;;;;5042807;28;20180;-81
2022/07/22 09:13:11;;;;;;;0.40;0.40;;;29.70;1.00;;;;;;5038788;28;20205;-79
2022/07/22 09:15:50;;;;;;;0.40;0.40;;;29.60;1.00;;;;;;5035108;28;20682;-80
2022/07/22 09:18:16;;;;;;;0.50;0.50;;;29.50;1.00;;;;;;5037299;28;20183;-78
2022/07/22 09:20:43;;;;;;;0.50;0.50;;;29.50;1.00;;;;;;5040100;28;20178;-79
2022/07/22 09:23:15;;;;;;;0.30;0.30;;;29.60;1.00;;;;;;5035284;28;20191;-78
2022/07/22 09:25:41;;;;;;;0.40;0.40;;;29.20;1.00;;;;;;5035960;28;20180;-78
2022/07/22 09:28:06;;;;;;;0.40;0.40;;;29.10;1.00;;;;;;5037302;28;20593;-78
2022/07/22 09:30:34;;;;;;;0.40;0.40;;;28.90;1.00;;;;;;5035929;28;20700;-78
2022/07/22 09:33:00;;;;;;;0.40;0.40;;;29.00;1.00;;;;;;5036663;28;20529;-79
2022/07/22 09:35:26;;;;;;;0.40;0.40;;;29.30;1.00;;;;;;5035172;28;20191;-80
2022/07/22 09:37:57;;;;;;;0.40;0.40;;;29.80;1.00;;;;;;5037923;28;20216;-81
2022/07/22 09:40:25;;;;;;;0.50;0.50;;;29.80;1.00;;;;;;5036373;28;20640;-82
2022/07/22 09:42:56;;;;;;;0.50;0.50;;;30.30;1.00;;;;;;5036123;28;20234;-79
2022/07/22 09:45:23;;;;;;;0.40;0.40;;;30.00;1.00;;;;;;5037344;28;20675;-82
2022/07/22 09:47:50;;;;;;;0.40;0.40;;;30.00;1.00;;;;;;5035814;28;20180;-79
2022/07/22 09:50:15;;;;;;;0.47;0.47;;;29.80;1.00;;;;;;5035065;28;20271;-80
2022/07/22 09:52:42;;;;;;;0.40;0.40;;;30.30;1.00;;;;;;5036081;28;20196;-80
2022/07/22 09:55:08;;;;;;;0.40;0.40;;;30.80;1.00;;;;;;5036685;28;20267;-81
2022/07/22 09:57:34;;;;;;;0.60;0.60;;;31.20;1.00;;;;;;5037917;28;20212;-79
2022/07/22 09:59:59;;;;;;;0.50;0.50;;;31.40;1.00;;;;;;5038865;28;20191;-79
2022/07/22 10:02:27;;;;;;;0.50;0.50;;;31.70;1.00;;;;;;5038758;28;20199;-81
2022/07/22 10:04:53;;;;;;;0.40;0.40;;;31.90;1.00;;;;;;5035901;28;20649;-79
2022/07/22 10:07:20;;;;;;;0.50;0.50;;;31.80;1.00;;;;;;5035180;28;20180;-80
2022/07/22 10:09:47;;;;;;;0.50;0.50;;;31.80;1.00;;;;;;5035083;28;20208;-79
2022/07/22 10:12:15;;;;;;;0.50;0.50;;;31.80;1.00;;;;;;5035814;28;20195;-78
2022/07/22 10:14:40;;;;;;;0.50;0.50;;;31.80;1.00;;;;;;5035993;28;20179;-79
2022/07/22 10:17:06;;;;;;;0.50;0.50;;;31.50;1.00;;;;;;5035360;28;20219;-78
2022/07/22 10:19:32;;;;;;;0.40;0.40;;;31.20;1.00;;;;;;5037803;28;20180;-80
2022/07/22 10:21:57;;;;;;;0.53;0.53;;;31.20;1.00;;;;;;5038056;28;20631;-78
2022/07/22 10:24:23;;;;;;;0.50;0.50;;;31.30;1.00;;;;;;5036913;28;20642;-80
2022/07/22 10:26:51;;;;;;;0.50;0.50;;;31.50;1.00;;;;;;5037900;28;20653;-80
2022/07/22 10:29:39;;;;;;;0.50;0.50;;;31.80;1.00;;;;;;5036851;28;20184;-78
2022/07/22 10:32:22;;;;;;;0.43;0.43;;;31.90;1.00;;;;;;5037692;28;20668;-78
2022/07/22 10:35:06;;;;;;;0.50;0.50;;;32.20;1.00;;;;;;5038121;28;20568;-79
2022/07/22 10:37:35;;;;;;;0.43;0.43;;;32.40;1.00;;;;;;5039139;28;20222;-80
2022/07/22 10:40:21;;;;;;;0.50;0.50;;;32.20;1.00;;;;;;5038874;28;20172;-81
2022/07/22 10:43:03;;;;;;;0.60;0.60;;;31.80;1.00;;;;;;5039966;28;20207;-79
2022/07/22 10:45:46;;;;;;;0.60;0.60;;;31.50;1.00;;;;;;5039427;28;20180;-79
2022/07/22 10:48:15;;;;;;;0.50;0.50;;;31.70;1.00;;;;;;5039699;28;20550;-79
2022/07/22 10:50:47;;;;;;;0.40;0.40;;;32.10;1.00;;;;;;5039094;28;20179;-80
2022/07/22 10:53:18;;;;;;;0.50;0.50;;;32.30;1.00;;;;;;5038356;28;20199;-79
2022/07/22 10:56:04;;;;;;;0.57;0.57;;;32.50;1.00;;;;;;5037174;28;20226;-81
2022/07/22 10:58:35;;;;;;;0.50;0.50;;;32.60;1.00;;;;;;5036861;28;20510;-81
2022/07/22 11:01:03;;;;;;;0.40;0.40;;;32.20;1.00;;;;;;5035126;28;21280;-82
2022/07/22 11:03:29;;;;;;;0.40;0.40;;;32.20;1.00;;;;;;5035638;28;20257;-81
2022/07/22 11:05:56;;;;;;;0.67;0.67;;;31.50;1.00;;;;;;5036218;28;20184;-81
2022/07/22 11:08:22;;;;;;;0.50;0.50;;;31.40;1.00;;;;;;5035239;28;20866;-80
2022/07/22 11:10:49;;;;;;;0.60;0.60;;;31.30;1.00;;;;;;5035559;28;20180;-79
2022/07/22 11:13:35;;;;;;;0.60;0.60;;;31.60;1.00;;;;;;5035191;28;20234;-83
2022/07/22 11:16:14;;;;;;;0.50;0.50;;;31.70;1.00;;;;;;5035103;28;20221;-81
2022/07/22 11:18:48;;;;;;;0.50;0.50;;;32.20;1.00;;;;;;5035938;28;20656;-82
2022/07/22 11:21:16;;;;;;;0.50;0.50;;;32.70;1.00;;;;;;5035323;28;20175;-80
2022/07/22 11:23:43;;;;;;;0.55;0.55;;;33.20;1.00;;;;;;5036096;28;20192;-80
2022/07/22 11:26:12;;;;;;;0.60;0.60;;;33.60;1.00;;;;;;5036813;28;20176;-81
2022/07/22 11:28:40;;;;;;;0.43;0.43;;;33.60;1.00;;;;;;5035747;28;20641;-79
2022/07/22 11:31:07;;;;;;;0.30;0.30;;;33.00;1.00;;;;;;5036945;28;20539;-83
2022/07/22 11:33:33;;;;;;;0.60;0.60;;;32.80;1.00;;;;;;5037601;28;20282;-81
2022/07/22 11:36:06;;;;;;;0.50;0.50;;;32.70;1.00;;;;;;5035477;28;20206;-83
2022/07/22 11:38:49;;;;;;;0.57;0.57;;;32.60;1.00;;;;;;5035455;28;20661;-80
2022/07/22 11:41:19;;;;;;;0.40;0.40;;;32.40;1.00;;;;;;5034610;28;20184;-80
2022/07/22 11:43:46;;;;;;;0.50;0.50;;;32.60;1.00;;;;;;5034855;28;20770;-79
2022/07/22 11:46:13;;;;;;;0.70;0.70;;;32.80;1.00;;;;;;5035351;28;20515;-79
2022/07/22 11:48:40;;;;;;;0.50;0.50;;;32.60;1.00;;;;;;5030797;28;20168;-80
2022/07/22 11:51:06;;;;;;;0.47;0.47;;;32.30;1.00;;;;;;5025558;28;20263;-81
2022/07/22 11:53:32;;;;;;;0.60;0.60;;;32.30;1.00;;;;;;5026678;28;20198;-81
2022/07/22 11:56:00;;;;;;;0.52;0.52;;;32.30;1.00;;;;;;5034967;28;20168;-82
2022/07/22 11:58:40;;;;;;;0.60;0.60;;;32.50;1.00;;;;;;5035357;28;20229;-82
2022/07/22 12:01:14;;;;;;;0.60;0.60;;;32.60;1.00;;;;;;5033680;28;20253;-82
2022/07/22 12:03:45;;;;;;;0.60;0.60;;;33.10;1.00;;;;;;5035892;28;20730;-81
2022/07/22 12:06:13;;;;;;;0.52;0.52;;;33.30;1.00;;;;;;5038110;28;20182;-81
2022/07/22 12:08:51;;;;;;;0.50;0.50;;;33.20;1.00;;;;;;5038440;28;20176;-81
2022/07/22 12:11:18;;;;;;;0.55;0.55;;;33.00;1.00;;;;;;5038967;28;20214;-80
2022/07/22 12:13:47;;;;;;;0.57;0.57;;;33.10;1.00;;;;;;5037134;28;20222;-82
2022/07/22 12:16:27;;;;;;;0.60;0.60;;;33.40;1.00;;;;;;5040154;28;20200;-80
2022/07/22 12:19:04;;;;;;;0.50;0.50;;;33.20;1.00;;;;;;5036352;28;20175;-80
2022/07/22 12:21:37;;;;;;;0.60;0.60;;;33.50;1.00;;;;;;5039233;28;20180;-82
2022/07/22 12:24:05;;;;;;;0.40;0.40;;;33.30;1.00;;;;;;5039176;28;20301;-81
2022/07/22 12:26:46;;;;;;;0.50;0.50;;;33.20;1.00;;;;;;5039340;28;20678;-81
2022/07/22 12:29:25;;;;;;;0.60;0.60;;;32.80;1.00;;;;;;5038421;28;20199;-81
2022/07/22 12:31:56;;;;;;;0.50;0.50;;;32.40;1.00;;;;;;5038707;28;20172;-79
2022/07/22 12:34:32;;;;;;;0.60;0.60;;;32.20;1.00;;;;;;5038261;28;20207;-80
2022/07/22 12:37:02;;;;;;;0.65;0.65;;;32.60;1.00;;;;;;5039030;28;20302;-80
2022/07/22 12:39:28;;;;;;;0.60;0.60;;;32.90;1.00;;;;;;5037402;28;20199;-80
2022/07/22 12:44:30;;;;;;;0.50;0.50;;;33.00;1.00;;;;;;5035237;28;20199;-79
2022/07/22 12:46:56;;;;;;;0.40;0.40;;;33.30;1.00;;;;;;5037001;28;20183;-79
2022/07/22 12:49:25;;;;;;;0.50;0.50;;;33.60;1.00;;;;;;5036001;28;20230;-79
2022/07/22 12:52:13;;;;;;;0.52;0.52;;;33.60;1.00;;;;;;5036042;28;20179;-79
2022/07/22 12:54:40;;;;;;;0.50;0.50;;;33.30;1.00;;;;;;5036325;28;20649;-79